createdAt,value
2023-03-14T00:01:17.843Z,6.12
2023-03-14T00:03:45.711Z,6.17
2023-03-14T00:06:15.113Z,5.65
2023-03-14T00:08:44.317Z,5.42
2023-03-14T00:11:21.144Z,5.28
2023-03-14T00:13:50.583Z,6.60
2023-03-14T00:16:19.313Z,5.62
2023-03-14T00:18:46.928Z,5.10
2023-03-14T00:21:14.983Z,6.33
2023-03-14T00:23:43.674Z,5.50
2023-03-14T00:26:15.490Z,5.95
2023-03-14T00:28:44.848Z,7.55
2023-03-14T00:31:15.571Z,6.08
2023-03-14T00:33:45.281Z,6.67
2023-03-14T00:36:17.318Z,7.42
2023-03-14T00:38:48.878Z,5.60
2023-03-14T00:41:22.626Z,5.45
2023-03-14T00:43:51.405Z,5.40
2023-03-14T00:46:19.523Z,4.70
2023-03-14T00:48:48.695Z,5.35
2023-03-14T00:51:17.358Z,4.50
2023-03-14T00:53:45.749Z,4.08
2023-03-14T00:56:13.679Z,4.30
2023-03-14T00:58:41.626Z,4.10
2023-03-14T01:01:17.027Z,3.83
2023-03-14T01:03:44.774Z,3.20
2023-03-14T01:06:18.796Z,4.12
2023-03-14T01:08:47.693Z,3.90
2023-03-14T01:11:20.834Z,3.55
2023-03-14T01:13:48.952Z,3.75
2023-03-14T01:16:17.358Z,2.98
2023-03-14T01:18:46.882Z,3.80
2023-03-14T01:21:27.675Z,4.60
2023-03-14T01:23:58.585Z,4.28
2023-03-14T01:26:30.516Z,4.17
2023-03-14T01:28:58.834Z,5.25
2023-03-14T01:31:27.990Z,5.05
2023-03-14T01:33:56.782Z,5.53
2023-03-14T01:36:24.646Z,5.50
2023-03-14T01:38:52.661Z,6.30
2023-03-14T01:41:23.952Z,5.75
2023-03-14T01:43:52.981Z,6.08
2023-03-14T01:46:28.972Z,5.10
2023-03-14T01:49:13.488Z,4.80
2023-03-14T01:52:01.929Z,5.25
2023-03-14T01:54:35.194Z,3.83
2023-03-14T01:57:34.374Z,3.33
2023-03-14T02:00:14.608Z,3.42
2023-03-14T02:02:50.795Z,3.60
2023-03-14T02:05:24.778Z,3.33
2023-03-14T02:08:07.221Z,3.50
2023-03-14T02:10:47.841Z,2.92
2023-03-14T02:13:19.700Z,2.95
2023-03-14T02:15:47.579Z,3.47
2023-03-14T02:18:18.440Z,3.52
2023-03-14T02:21:25.425Z,3.12
2023-03-14T02:24:20.090Z,3.35
2023-03-14T02:27:14.518Z,3.55
2023-03-14T02:29:58.239Z,2.92
2023-03-14T02:32:29.045Z,6.90
2023-03-14T02:35:01.644Z,4.53
2023-03-14T02:37:37.814Z,3.35
2023-03-14T02:40:08.191Z,3.50
2023-03-14T02:42:36.701Z,3.75
2023-03-14T02:45:16.526Z,3.75
2023-03-14T02:47:55.814Z,3.90
2023-03-14T02:50:29.292Z,4.75
2023-03-14T02:52:59.850Z,5.05
2023-03-14T02:55:29.928Z,5.28
2023-03-14T02:58:00.636Z,4.70
2023-03-14T03:00:34.068Z,3.40
2023-03-14T03:03:06.154Z,3.30
2023-03-14T03:05:36.394Z,3.83
2023-03-14T03:08:09.685Z,3.25
2023-03-14T03:10:43.346Z,3.58
2023-03-14T03:13:17.622Z,3.50
2023-03-14T03:15:47.821Z,3.75
2023-03-14T03:18:15.821Z,4.62
2023-03-14T03:20:43.678Z,8.93
2023-03-14T03:23:11.664Z,4.72
2023-03-14T03:25:40.034Z,7.55
2023-03-14T03:28:08.383Z,7.65
2023-03-14T03:30:41.874Z,9.10
2023-03-14T03:33:10.250Z,10.70
2023-03-14T03:35:47.410Z,19.20
2023-03-14T03:38:16.504Z,14.03
2023-03-14T03:40:44.660Z,9.15
2023-03-14T03:43:12.433Z,8.03
2023-03-14T03:45:41.210Z,8.03
2023-03-14T03:48:09.151Z,10.98
2023-03-14T03:50:37.130Z,10.85
2023-03-14T03:53:05.022Z,10.20
2023-03-14T03:55:32.729Z,9.53
2023-03-14T03:58:00.652Z,13.38
2023-03-14T04:00:28.498Z,9.48
2023-03-14T04:02:56.449Z,9.63
2023-03-14T04:05:24.529Z,9.38
2023-03-14T04:08:04.866Z,10.85
2023-03-14T04:10:37.474Z,12.40
2023-03-14T04:13:12.711Z,14.30
2023-03-14T04:15:42.284Z,7.67
2023-03-14T04:18:11.865Z,7.47
2023-03-14T04:20:39.617Z,9.03
2023-03-14T04:23:07.456Z,11.60
2023-03-14T04:25:35.531Z,9.18
2023-03-14T04:28:05.012Z,9.13
2023-03-14T04:30:33.648Z,11.08
2023-03-14T04:33:11.519Z,10.90
2023-03-14T04:35:41.157Z,15.13
2023-03-14T04:38:11.286Z,34.13
2023-03-14T04:40:40.533Z,18.05
2023-03-14T04:43:10.926Z,13.55
2023-03-14T04:45:43.757Z,14.53
2023-03-14T04:48:13.046Z,14.00
2023-03-14T04:50:41.152Z,12.63
2023-03-14T04:53:08.994Z,12.75
2023-03-14T04:55:36.803Z,9.15
2023-03-14T04:58:04.483Z,9.25
2023-03-14T05:00:32.509Z,9.93
2023-03-14T05:03:18.899Z,7.85
2023-03-14T05:05:51.310Z,15.50
2023-03-14T05:08:39.060Z,7.70
2023-03-14T05:11:14.461Z,7.10
2023-03-14T05:13:52.741Z,7.80
2023-03-14T05:16:47.963Z,8.05
2023-03-14T05:19:17.372Z,8.93
2023-03-14T05:22:01.062Z,8.08
2023-03-14T05:24:30.893Z,7.58
2023-03-14T05:27:17.184Z,8.28
2023-03-14T05:30:06.060Z,7.35
2023-03-14T05:32:38.458Z,6.62
2023-03-14T05:35:10.352Z,6.50
2023-03-14T05:37:54.987Z,6.08
2023-03-14T05:40:32.632Z,6.12
2023-03-14T05:43:08.946Z,6.22
2023-03-14T05:45:45.811Z,5.28
2023-03-14T05:48:29.249Z,4.72
2023-03-14T05:51:07.929Z,5.12
2023-03-14T05:53:53.648Z,4.97
2023-03-14T05:56:39.543Z,4.70
2023-03-14T05:59:15.416Z,4.60
2023-03-14T06:01:48.040Z,4.55
2023-03-14T06:04:17.598Z,4.95
2023-03-14T06:06:47.144Z,5.45
2023-03-14T06:09:15.317Z,6.00
2023-03-14T06:11:43.949Z,5.75
2023-03-14T06:14:11.985Z,5.87
2023-03-14T06:16:41.339Z,5.85
2023-03-14T06:19:09.433Z,6.58
2023-03-14T06:21:37.178Z,8.08
2023-03-14T06:24:05.057Z,9.05
2023-03-14T06:26:34.059Z,8.28
2023-03-14T06:29:03.775Z,7.90
2023-03-14T06:31:32.772Z,7.70
2023-03-14T06:34:02.261Z,7.17
2023-03-14T06:36:31.682Z,7.50
2023-03-14T06:38:59.596Z,8.45
2023-03-14T06:41:28.635Z,7.12
2023-03-14T06:43:57.174Z,8.20
2023-03-14T06:46:25.410Z,7.95
2023-03-14T06:48:54.585Z,9.25
2023-03-14T06:51:22.881Z,9.45
2023-03-14T06:53:50.990Z,6.90
2023-03-14T06:56:19.449Z,7.92
2023-03-14T06:58:49.973Z,7.87
2023-03-14T07:01:27.876Z,7.72
2023-03-14T07:03:58.132Z,7.30
2023-03-14T07:06:26.187Z,7.78
2023-03-14T07:08:54.171Z,7.45
2023-03-14T07:11:23.599Z,8.05
2023-03-14T07:13:51.511Z,7.75
2023-03-14T07:16:20.367Z,7.28
2023-03-14T07:18:49.656Z,8.45
2023-03-14T07:21:17.500Z,8.63
2023-03-14T07:23:45.260Z,8.15
2023-03-14T07:26:13.315Z,8.15
2023-03-14T07:28:43.364Z,7.87
2023-03-14T07:31:12.979Z,8.20
2023-03-14T07:33:40.975Z,7.33
2023-03-14T07:36:10.215Z,7.80
2023-03-14T07:38:39.366Z,6.67
2023-03-14T07:41:15.214Z,6.95
2023-03-14T07:43:45.025Z,7.17
2023-03-14T07:46:12.696Z,6.90
2023-03-14T07:48:40.963Z,7.10
2023-03-14T07:51:08.998Z,7.05
2023-03-14T07:53:36.815Z,6.60
2023-03-14T07:56:04.894Z,7.10
2023-03-14T07:58:32.823Z,6.83
2023-03-14T08:01:00.518Z,6.60
2023-03-14T08:03:28.403Z,6.22
2023-03-14T08:05:56.304Z,6.55
2023-03-14T08:08:24.068Z,6.58
2023-03-14T08:10:52.013Z,6.85
2023-03-14T08:13:19.897Z,6.35
2023-03-14T08:15:49.982Z,6.40
2023-03-14T08:18:17.647Z,7.08
2023-03-14T08:20:45.291Z,7.58
2023-03-14T08:23:12.947Z,6.25
2023-03-14T08:25:40.382Z,5.80
2023-03-14T08:28:07.971Z,6.25
2023-03-14T08:30:35.597Z,6.03
2023-03-14T08:33:03.513Z,6.58
2023-03-14T08:35:31.136Z,6.30
2023-03-14T08:37:58.572Z,6.00
2023-03-14T08:40:26.523Z,5.85
2023-03-14T08:42:53.969Z,5.72
2023-03-14T08:45:22.074Z,4.90
2023-03-14T08:47:49.767Z,5.62
2023-03-14T08:50:17.599Z,5.62
2023-03-14T08:52:45.170Z,5.45
2023-03-14T08:55:12.978Z,5.58
2023-03-14T08:57:40.520Z,5.95
2023-03-14T09:00:13.022Z,5.25
2023-03-14T09:02:40.695Z,5.60
2023-03-14T09:05:10.599Z,5.50
2023-03-14T09:07:39.497Z,5.72
2023-03-14T09:10:09.920Z,5.85
2023-03-14T09:12:37.756Z,5.37
2023-03-14T09:15:07.528Z,6.17
2023-03-14T09:17:35.070Z,6.03
2023-03-14T09:20:07.865Z,5.80
2023-03-14T09:22:36.132Z,6.10
2023-03-14T09:25:05.249Z,5.83
2023-03-14T09:27:33.108Z,7.00
2023-03-14T09:30:00.859Z,7.35
2023-03-14T09:32:28.938Z,6.95
2023-03-14T09:34:56.440Z,6.70
2023-03-14T09:37:23.973Z,6.92
2023-03-14T09:39:51.528Z,6.80
2023-03-14T09:42:23.576Z,6.22
2023-03-14T09:44:59.548Z,6.60
2023-03-14T09:47:28.717Z,5.90
2023-03-14T09:49:56.513Z,5.83
2023-03-14T09:52:37.618Z,5.20
2023-03-14T09:55:16.114Z,5.62
2023-03-14T09:57:47.975Z,5.60
2023-03-14T10:00:26.567Z,5.08
2023-03-14T10:02:58.978Z,5.17
2023-03-14T10:05:29.312Z,5.55
2023-03-14T10:07:57.009Z,5.10
2023-03-14T10:10:27.047Z,5.70
2023-03-14T10:13:24.670Z,5.05
2023-03-14T10:15:56.728Z,5.00
2023-03-14T10:18:25.373Z,4.67
2023-03-14T10:21:25.562Z,5.20
2023-03-14T10:23:53.558Z,4.80
2023-03-14T10:26:28.591Z,4.17
2023-03-14T10:29:12.602Z,4.40
2023-03-14T10:31:56.219Z,4.25
2023-03-14T10:34:33.972Z,3.98
2023-03-14T10:37:22.771Z,4.87
2023-03-14T10:39:54.480Z,4.75
2023-03-14T10:42:32.244Z,5.03
2023-03-14T10:45:04.852Z,4.47
2023-03-14T10:47:33.601Z,4.97
2023-03-14T10:50:27.910Z,4.75
2023-03-14T10:53:03.187Z,4.10
2023-03-14T10:55:35.079Z,4.87
2023-03-14T10:58:02.750Z,5.03
2023-03-14T11:00:32.409Z,5.17
2023-03-14T11:03:15.307Z,4.87
2023-03-14T11:05:54.175Z,5.40
2023-03-14T11:08:47.178Z,4.47
2023-03-14T11:11:28.660Z,4.87
2023-03-14T11:14:19.973Z,5.92
2023-03-14T11:16:59.023Z,5.30
2023-03-14T11:20:17.571Z,5.80
2023-03-14T11:23:06.065Z,9.13
2023-03-14T11:25:50.175Z,10.85
2023-03-14T11:28:43.957Z,11.70
2023-03-14T11:31:28.482Z,8.78
2023-03-14T11:34:24.782Z,16.05
2023-03-14T11:37:03.830Z,15.55
2023-03-14T11:39:47.918Z,8.95
2023-03-14T11:42:18.290Z,17.65
2023-03-14T11:44:49.900Z,27.62
2023-03-14T11:47:29.529Z,18.20
2023-03-14T11:50:20.433Z,10.82
2023-03-14T11:52:59.477Z,6.65
2023-03-14T11:55:32.519Z,4.90
2023-03-14T11:58:26.423Z,4.90
2023-03-14T12:03:31.354Z,4.70
2023-03-14T12:06:19.587Z,4.90
2023-03-14T12:08:54.653Z,4.70
2023-03-14T12:11:36.784Z,4.62
2023-03-14T12:14:25.118Z,4.33
2023-03-14T12:17:20.377Z,4.60
2023-03-14T12:19:52.403Z,4.47
2023-03-14T12:22:37.211Z,4.60
2023-03-14T12:25:10.522Z,3.83
2023-03-14T12:27:52.558Z,3.70
2023-03-14T12:30:38.938Z,3.40
2023-03-14T12:33:22.099Z,4.00
2023-03-14T12:35:56.191Z,3.52
2023-03-14T12:38:49.669Z,3.20
2023-03-14T12:41:31.043Z,2.17
2023-03-14T12:44:21.827Z,2.20
2023-03-14T12:46:51.821Z,1.67
2023-03-14T12:49:23.475Z,1.95
2023-03-14T12:52:04.818Z,1.67
2023-03-14T12:54:56.825Z,2.42
2023-03-14T12:57:35.416Z,1.60
2023-03-14T13:00:22.033Z,1.80
2023-03-14T13:02:50.990Z,2.67
2023-03-14T13:05:26.326Z,2.58
2023-03-14T13:08:04.690Z,1.60
2023-03-14T13:10:44.154Z,1.40
2023-03-14T13:13:28.742Z,1.50
2023-03-14T13:16:02.513Z,1.55
2023-03-14T13:18:37.789Z,1.25
2023-03-14T13:21:21.707Z,2.10
2023-03-14T13:24:10.504Z,1.65
2023-03-14T13:26:47.884Z,1.80
2023-03-14T13:29:25.218Z,1.87
2023-03-14T13:31:59.408Z,2.27
2023-03-14T13:34:33.824Z,1.82
2023-03-14T13:37:02.145Z,1.75
2023-03-14T13:39:33.311Z,2.70
2023-03-14T13:42:02.520Z,1.70
2023-03-14T13:44:38.108Z,2.10
2023-03-14T13:47:13.732Z,2.55
2023-03-14T13:49:41.596Z,1.55
2023-03-14T13:52:38.758Z,2.10
2023-03-14T13:55:17.688Z,1.87
2023-03-14T13:57:56.486Z,1.77
2023-03-14T14:00:27.573Z,1.60
2023-03-14T14:02:58.042Z,2.10
2023-03-14T14:05:28.876Z,2.15
2023-03-14T14:07:57.635Z,2.00
2023-03-14T14:10:29.111Z,2.50
2023-03-14T14:13:02.057Z,2.15
2023-03-14T14:15:33.541Z,1.92
2023-03-14T14:18:08.752Z,1.80
2023-03-14T14:20:41.312Z,3.08
2023-03-14T14:23:13.496Z,2.15
2023-03-14T14:25:43.174Z,2.80
2023-03-14T14:28:30.282Z,1.98
2023-03-14T14:31:25.695Z,2.12
2023-03-14T14:34:02.384Z,2.92
2023-03-14T14:36:42.974Z,3.30
2023-03-14T14:39:26.766Z,2.92
2023-03-14T14:41:55.204Z,5.65
2023-03-14T14:44:35.535Z,8.83
2023-03-14T14:47:04.825Z,11.75
2023-03-14T14:49:34.659Z,10.32
2023-03-14T14:52:19.661Z,13.80
2023-03-14T14:54:58.846Z,10.18
2023-03-14T14:57:38.394Z,7.72
2023-03-14T15:00:14.889Z,6.67
2023-03-14T15:02:55.878Z,7.45
2023-03-14T15:05:26.878Z,9.88
2023-03-14T15:07:55.132Z,13.83
2023-03-14T15:10:25.896Z,19.00
2023-03-14T15:12:54.226Z,13.68
2023-03-14T15:15:21.933Z,9.30
2023-03-14T15:17:49.388Z,7.35
2023-03-14T15:20:19.793Z,7.08
2023-03-14T15:22:48.120Z,7.22
2023-03-14T15:25:40.001Z,7.33
2023-03-14T15:27:46.495Z,7.87
2023-03-14T15:30:16.523Z,8.50
2023-03-14T15:32:44.229Z,9.03
2023-03-14T15:35:12.021Z,13.60
2023-03-14T15:37:39.759Z,14.73
2023-03-14T15:40:12.176Z,22.58
2023-03-14T15:45:09.864Z,17.80
2023-03-14T15:47:37.686Z,16.70
2023-03-14T15:50:08.700Z,18.55
2023-03-14T15:52:36.354Z,22.58
2023-03-14T15:55:06.382Z,21.90
2023-03-14T15:57:34.685Z,25.20
2023-03-14T16:00:06.267Z,41.42
2023-03-14T16:02:34.992Z,43.25
2023-03-14T16:05:02.776Z,36.28
2023-03-14T16:07:32.415Z,19.10
2023-03-14T16:09:59.937Z,19.77
2023-03-14T16:12:27.675Z,29.70
2023-03-14T16:14:55.283Z,21.23
2023-03-14T16:17:23.017Z,16.00
2023-03-14T16:19:50.780Z,13.40
2023-03-14T16:22:18.671Z,14.83
2023-03-14T16:24:46.323Z,52.43
2023-03-14T16:27:14.173Z,61.05
2023-03-14T16:29:42.897Z,76.45
2023-03-14T16:32:10.896Z,76.67
2023-03-14T16:34:39.863Z,70.50
2023-03-14T16:37:07.549Z,65.47
2023-03-14T16:42:07.333Z,53.30
2023-03-14T16:44:34.903Z,37.80
2023-03-14T16:47:02.623Z,37.73
2023-03-14T16:49:30.210Z,37.78
2023-03-14T16:51:58.247Z,44.15
2023-03-14T16:54:25.841Z,38.15
2023-03-14T16:56:54.038Z,39.23
2023-03-14T16:59:21.879Z,40.65
2023-03-14T17:01:49.697Z,47.10
2023-03-14T17:04:17.408Z,42.67
2023-03-14T17:06:44.902Z,140.47
2023-03-14T17:09:12.528Z,67.53
2023-03-14T17:11:40.083Z,145.22
2023-03-14T17:14:07.468Z,140.12
2023-03-14T17:16:36.164Z,73.42
2023-03-14T17:19:04.064Z,70.20
2023-03-14T17:21:31.722Z,65.57
2023-03-14T17:23:59.556Z,61.77
2023-03-14T17:26:28.711Z,63.83
2023-03-14T17:28:56.371Z,76.92
2023-03-14T17:31:24.802Z,89.70
2023-03-14T17:33:52.702Z,67.92
2023-03-14T17:36:22.875Z,70.65
2023-03-14T17:38:52.011Z,53.70
2023-03-14T17:41:19.825Z,81.47
2023-03-14T17:43:47.492Z,48.30
2023-03-14T17:46:16.510Z,38.13
2023-03-14T17:48:47.085Z,30.70
2023-03-14T17:51:16.510Z,26.35
2023-03-14T17:53:44.272Z,32.58
2023-03-14T17:56:12.080Z,24.90
2023-03-14T17:58:41.820Z,22.17
2023-03-14T18:01:16.528Z,24.00
2023-03-14T18:03:48.292Z,30.80
2023-03-14T18:06:17.611Z,32.85
2023-03-14T18:08:46.814Z,27.80
2023-03-14T18:11:14.600Z,22.95
2023-03-14T18:13:42.736Z,26.68
2023-03-14T18:16:14.067Z,27.98
2023-03-14T18:18:47.847Z,26.95
2023-03-14T18:21:13.998Z,26.17
2023-03-14T18:23:41.967Z,26.50
2023-03-14T18:26:10.167Z,26.87
2023-03-14T18:28:37.927Z,29.37
2023-03-14T18:31:13.499Z,34.03
2023-03-14T18:33:42.877Z,35.85
2023-03-14T18:36:12.393Z,36.77
2023-03-14T18:38:45.400Z,33.95
2023-03-14T18:41:17.973Z,31.82
2023-03-14T18:43:46.324Z,31.70
2023-03-14T18:46:15.286Z,34.98
2023-03-14T18:48:43.061Z,31.15
2023-03-14T18:51:17.598Z,29.05
2023-03-14T18:53:46.411Z,28.00
2023-03-14T18:56:14.509Z,24.80
2023-03-14T18:58:42.703Z,21.42
2023-03-14T19:01:11.907Z,19.67
2023-03-14T19:03:40.122Z,16.75
2023-03-14T19:06:09.596Z,14.85
2023-03-14T19:08:38.500Z,13.75
2023-03-14T19:11:08.806Z,14.43
2023-03-14T19:13:37.568Z,15.95
2023-03-14T19:16:06.563Z,20.17
2023-03-14T19:18:34.415Z,23.15
2023-03-14T19:21:06.551Z,21.12
2023-03-14T19:23:36.700Z,18.12
2023-03-14T19:26:04.646Z,20.88
2023-03-14T19:28:32.268Z,20.00
2023-03-14T19:31:02.063Z,19.57
2023-03-14T19:33:30.630Z,19.57
2023-03-14T19:35:58.781Z,17.42
2023-03-14T19:38:26.656Z,16.95
2023-03-14T19:40:59.444Z,21.90
2023-03-14T19:43:27.246Z,27.55
2023-03-14T19:45:55.524Z,30.80
2023-03-14T19:48:25.545Z,29.95
2023-03-14T19:50:53.165Z,31.15
2023-03-14T19:53:20.918Z,30.37
2023-03-14T19:55:49.772Z,29.67
2023-03-14T19:58:17.232Z,26.25
2023-03-14T20:00:45.633Z,25.40
2023-03-14T20:03:13.263Z,17.80
2023-03-14T20:05:43.563Z,15.63
2023-03-14T20:08:11.398Z,16.35
2023-03-14T20:10:39.128Z,17.30
2023-03-14T20:13:19.273Z,17.05
2023-03-14T20:15:36.209Z,16.90
2023-03-14T20:18:03.968Z,17.90
2023-03-14T20:20:32.126Z,13.13
2023-03-14T20:22:59.708Z,14.07
2023-03-14T20:25:28.659Z,14.63
2023-03-14T20:27:56.322Z,12.95
2023-03-14T20:30:23.983Z,13.85
2023-03-14T20:32:51.605Z,10.80
2023-03-14T20:35:21.461Z,10.80
2023-03-14T20:37:55.168Z,9.98
2023-03-14T20:40:27.096Z,10.78
2023-03-14T20:42:56.005Z,13.75
2023-03-14T20:45:23.834Z,15.83
2023-03-14T20:47:51.574Z,18.75
2023-03-14T20:50:19.628Z,19.20
2023-03-14T20:52:47.495Z,18.40
2023-03-14T20:55:15.520Z,20.10
2023-03-14T20:57:43.368Z,19.00
2023-03-14T21:00:14.721Z,18.98
2023-03-14T21:02:42.538Z,24.20
2023-03-14T21:05:11.467Z,19.07
2023-03-14T21:07:40.926Z,18.65
2023-03-14T21:10:13.758Z,24.70
2023-03-14T21:12:42.085Z,26.07
2023-03-14T21:15:13.085Z,30.50
2023-03-14T21:17:42.124Z,38.42
2023-03-14T21:20:12.401Z,38.08
2023-03-14T21:22:40.415Z,35.20
2023-03-14T21:25:08.441Z,35.75
2023-03-14T21:27:39.081Z,33.33
2023-03-14T21:30:08.821Z,29.60
2023-03-14T21:32:39.395Z,22.75
2023-03-14T21:35:08.133Z,18.50
2023-03-14T21:37:35.957Z,17.00
2023-03-14T21:40:06.733Z,18.95
2023-03-14T21:42:35.046Z,21.20
2023-03-14T21:45:03.236Z,18.17
2023-03-14T21:47:32.451Z,17.40
2023-03-14T21:50:01.357Z,21.20
2023-03-14T21:52:29.224Z,18.48
2023-03-14T21:54:56.715Z,17.77
2023-03-14T21:57:25.912Z,14.38
2023-03-14T21:59:53.820Z,14.60
2023-03-14T22:02:21.826Z,14.50
2023-03-14T22:04:49.940Z,16.30
2023-03-14T22:07:18.888Z,17.77
2023-03-14T22:09:47.561Z,12.65
2023-03-14T22:12:16.968Z,16.62
2023-03-14T22:14:46.227Z,19.52
2023-03-14T22:17:13.982Z,16.42
2023-03-14T22:19:41.516Z,13.40
2023-03-14T22:22:09.408Z,14.73
2023-03-14T22:24:37.157Z,13.78
2023-03-14T22:27:04.832Z,11.78
2023-03-14T22:29:33.972Z,11.10
2023-03-14T22:32:01.818Z,12.43
2023-03-14T22:34:31.114Z,8.55
2023-03-14T22:37:05.865Z,12.55
2023-03-14T22:39:34.260Z,9.10
2023-03-14T22:42:02.651Z,8.40
2023-03-14T22:44:32.198Z,7.70
2023-03-14T22:47:00.732Z,7.12
2023-03-14T22:49:30.932Z,5.92
2023-03-14T22:51:59.271Z,7.10
2023-03-14T22:54:27.315Z,5.90
2023-03-14T22:56:55.147Z,6.03
2023-03-14T22:59:22.734Z,8.20
2023-03-14T23:01:50.484Z,9.28
2023-03-14T23:04:18.160Z,14.40
2023-03-14T23:06:45.899Z,15.58
2023-03-14T23:09:16.999Z,14.85
2023-03-14T23:11:44.948Z,8.60
2023-03-14T23:14:13.285Z,7.30
2023-03-14T23:16:41.277Z,7.90
2023-03-14T23:19:10.512Z,8.70
2023-03-14T23:21:38.212Z,8.13
2023-03-14T23:24:06.613Z,7.67
2023-03-14T23:26:35.113Z,7.35
2023-03-14T23:29:05.069Z,7.15
2023-03-14T23:31:33.329Z,6.42
2023-03-14T23:34:01.334Z,6.08
2023-03-14T23:36:29.329Z,6.92
2023-03-14T23:38:57.225Z,7.10
2023-03-14T23:41:25.187Z,8.95
2023-03-14T23:43:52.714Z,9.13
2023-03-14T23:46:21.409Z,8.88
2023-03-14T23:48:49.044Z,8.68
2023-03-14T23:51:17.436Z,8.58
2023-03-14T23:53:45.238Z,8.68
2023-03-14T23:56:14.547Z,7.75
2023-03-14T23:58:42.436Z,7.55
